createdAt,value
2019-03-19T05:19:18.499Z,5.48
2019-03-19T05:21:46.803Z,1.59
2019-03-19T05:24:15.195Z,1.77
2019-03-19T05:26:43.512Z,2.00
2019-03-19T05:29:11.952Z,2.14
2019-03-19T05:31:40.281Z,2.11
2019-03-19T05:34:08.587Z,2.05
2019-03-19T05:36:36.888Z,2.23
2019-03-19T05:39:07.337Z,2.33
2019-03-19T05:41:36.105Z,2.46
2019-03-19T05:44:04.611Z,2.30
2019-03-19T05:46:32.959Z,2.68
2019-03-19T05:49:01.337Z,2.88
2019-03-19T05:51:29.672Z,2.99
2019-03-19T05:53:57.990Z,3.08
2019-03-19T05:56:26.305Z,3.20
2019-03-19T05:58:54.608Z,3.38
2019-03-19T06:01:23.086Z,3.58
2019-03-19T06:03:51.389Z,3.84
2019-03-19T06:06:19.726Z,3.80
2019-03-19T06:08:48.034Z,3.94
2019-03-19T06:11:16.329Z,4.03
2019-03-19T06:13:44.648Z,3.95
2019-03-19T06:16:12.955Z,3.71
2019-03-19T06:18:41.619Z,3.74
2019-03-19T06:21:09.924Z,3.78
2019-03-19T06:23:38.246Z,3.65
2019-03-19T06:26:06.799Z,3.89
2019-03-19T06:28:35.728Z,3.79
2019-03-19T06:31:04.410Z,3.60
2019-03-19T06:33:32.716Z,3.56
2019-03-19T06:36:01.209Z,3.65
2019-03-19T06:38:29.510Z,3.69
2019-03-19T06:40:57.855Z,4.68
2019-03-19T06:43:26.156Z,4.04
2019-03-19T06:45:54.465Z,3.98
2019-03-19T06:48:22.794Z,26.46
2019-03-19T06:50:51.404Z,4.88
2019-03-19T06:53:19.748Z,3.65
2019-03-19T06:55:48.061Z,4.56
2019-03-19T06:58:16.393Z,4.04
2019-03-19T07:00:44.692Z,4.73
2019-03-19T07:03:13.000Z,3.94
2019-03-19T07:05:41.333Z,3.97
2019-03-19T07:08:10.175Z,4.00
2019-03-19T07:10:38.503Z,4.05
2019-03-19T07:13:06.931Z,4.03
2019-03-19T07:15:35.236Z,4.35
2019-03-19T07:18:03.627Z,4.39
2019-03-19T07:20:32.014Z,4.44
2019-03-19T07:23:00.314Z,4.43
2019-03-19T07:25:28.621Z,4.46
2019-03-19T07:27:57.016Z,4.53
2019-03-19T07:30:26.671Z,4.60
2019-03-19T07:32:55.007Z,4.82
2019-03-19T07:35:23.384Z,4.74
2019-03-19T07:37:51.733Z,4.82
2019-03-19T07:40:20.038Z,4.98
2019-03-19T07:42:48.344Z,5.08
2019-03-19T07:45:21.046Z,5.22
2019-03-19T07:47:49.322Z,4.98
2019-03-19T07:50:19.854Z,5.33
2019-03-19T07:52:48.228Z,5.34
2019-03-19T07:55:16.792Z,5.39
2019-03-19T07:57:45.093Z,5.33
2019-03-19T08:00:16.308Z,5.71
2019-03-19T08:02:45.181Z,5.51
2019-03-19T08:05:13.563Z,5.54
2019-03-19T08:07:42.398Z,5.41
2019-03-19T08:10:15.822Z,5.55
2019-03-19T08:12:44.387Z,5.51
2019-03-19T08:15:20.279Z,5.37
2019-03-19T08:17:48.693Z,5.36
2019-03-19T08:20:18.612Z,5.61
2019-03-19T08:22:47.384Z,5.34
2019-03-19T08:25:18.660Z,5.36
2019-03-19T08:27:47.046Z,5.77
2019-03-19T08:30:20.084Z,6.02
2019-03-19T08:32:48.561Z,6.17
2019-03-19T08:35:16.878Z,6.23
2019-03-19T08:37:45.264Z,6.36
2019-03-19T08:40:16.028Z,6.31
2019-03-19T08:42:44.722Z,6.34
2019-03-19T08:45:19.072Z,6.38
2019-03-19T08:47:47.539Z,6.68
2019-03-19T08:50:21.049Z,6.48
2019-03-19T08:52:49.398Z,6.85
2019-03-19T08:55:17.844Z,6.56
2019-03-19T08:57:46.217Z,6.90
2019-03-19T09:00:17.872Z,7.07
2019-03-19T09:02:46.243Z,6.51
2019-03-19T09:05:14.937Z,6.84
2019-03-19T09:07:43.257Z,7.10
2019-03-19T09:10:16.361Z,6.94
2019-03-19T09:12:44.859Z,7.27
2019-03-19T09:15:17.692Z,7.30
2019-03-19T09:17:46.059Z,6.85
2019-03-19T09:20:15.910Z,7.30
2019-03-19T09:22:44.300Z,7.12
2019-03-19T09:25:12.872Z,7.48
2019-03-19T09:27:41.270Z,7.70
2019-03-19T09:30:18.738Z,6.92
2019-03-19T09:32:47.380Z,7.21
2019-03-19T09:35:15.754Z,7.12
2019-03-19T09:37:53.629Z,6.99
2019-03-19T09:40:19.847Z,6.92
2019-03-19T09:42:48.808Z,7.07
2019-03-19T09:45:18.187Z,7.47
2019-03-19T09:47:47.233Z,7.46
2019-03-19T09:50:20.528Z,7.62
2019-03-19T09:52:49.082Z,7.65
2019-03-19T09:55:17.768Z,7.69
2019-03-19T09:57:46.177Z,7.84
2019-03-19T10:00:22.945Z,8.24
2019-03-19T10:02:51.277Z,8.20
2019-03-19T10:05:19.879Z,8.13
2019-03-19T10:07:48.586Z,8.86
2019-03-19T10:10:23.873Z,8.78
2019-03-19T10:12:52.149Z,8.88
2019-03-19T10:15:20.523Z,9.08
2019-03-19T10:17:48.850Z,9.52
2019-03-19T10:20:18.893Z,9.71
2019-03-19T10:22:47.999Z,9.00
2019-03-19T10:25:16.987Z,9.73
2019-03-19T10:27:45.373Z,9.18
2019-03-19T10:30:21.948Z,8.64
2019-03-19T10:32:50.322Z,9.41
2019-03-19T10:35:19.561Z,9.31
2019-03-19T10:37:47.949Z,9.98
2019-03-19T10:40:22.693Z,9.74
2019-03-19T10:42:51.037Z,9.74
2019-03-19T10:45:23.278Z,9.90
2019-03-19T10:47:51.576Z,9.75
2019-03-19T10:50:26.778Z,9.40
2019-03-19T10:52:55.138Z,9.11
2019-03-19T10:55:23.571Z,9.22
2019-03-19T10:57:51.912Z,8.99
2019-03-19T11:00:27.119Z,9.55
2019-03-19T11:02:55.515Z,9.66
2019-03-19T11:05:24.749Z,10.10
2019-03-19T11:07:53.468Z,10.51
2019-03-19T11:10:22.257Z,10.65
2019-03-19T11:12:50.716Z,11.28
2019-03-19T11:15:21.040Z,11.56
2019-03-19T11:17:49.431Z,12.03
2019-03-19T11:20:18.877Z,11.39
2019-03-19T11:22:47.538Z,11.13
2019-03-19T11:25:21.113Z,10.67
2019-03-19T11:27:49.482Z,9.92
2019-03-19T11:30:29.163Z,10.44
2019-03-19T11:32:57.549Z,9.95
2019-03-19T11:35:26.438Z,9.17
2019-03-19T11:37:54.887Z,9.81
2019-03-19T11:40:25.553Z,8.75
2019-03-19T11:42:53.576Z,8.24
2019-03-19T11:45:23.158Z,8.22
2019-03-19T11:47:52.156Z,7.99
2019-03-19T11:50:26.164Z,8.36
2019-03-19T11:52:54.899Z,8.78
2019-03-19T11:55:23.580Z,8.46
2019-03-19T11:57:52.427Z,8.31
2019-03-19T12:00:30.150Z,8.34
2019-03-19T12:02:58.818Z,8.52
2019-03-19T12:05:27.210Z,8.74
2019-03-19T12:07:55.507Z,8.42
2019-03-19T12:10:23.798Z,8.49
2019-03-19T12:12:52.115Z,8.48
2019-03-19T12:15:20.491Z,8.55
2019-03-19T12:17:48.991Z,7.62
2019-03-19T12:20:17.368Z,6.41
2019-03-19T12:22:45.706Z,6.25
2019-03-19T12:25:14.569Z,6.29
2019-03-19T12:27:42.870Z,6.50
2019-03-19T12:30:22.359Z,6.47
2019-03-19T12:32:46.546Z,6.52
2019-03-19T12:35:16.582Z,7.09
2019-03-19T12:37:45.014Z,7.69
2019-03-19T12:40:19.194Z,7.91
2019-03-19T12:42:47.568Z,8.31
2019-03-19T12:45:20.270Z,8.55
2019-03-19T12:47:48.628Z,8.55
2019-03-19T12:50:22.831Z,8.32
2019-03-19T12:52:51.952Z,8.68
2019-03-19T12:55:20.352Z,8.59
2019-03-19T12:57:48.746Z,8.59
2019-03-19T13:00:34.216Z,8.59
2019-03-19T13:02:57.941Z,8.80
2019-03-19T13:05:26.356Z,8.81
2019-03-19T13:07:54.706Z,8.74
2019-03-19T13:10:24.054Z,8.67
2019-03-19T13:12:52.371Z,8.90
2019-03-19T13:15:21.408Z,9.03
2019-03-19T13:17:49.795Z,9.29
2019-03-19T13:20:19.112Z,9.77
2019-03-19T13:22:47.433Z,12.09
2019-03-19T13:25:18.025Z,12.91
2019-03-19T13:27:46.699Z,14.18
2019-03-19T13:30:29.191Z,15.68
2019-03-19T13:32:57.605Z,14.99
2019-03-19T13:35:25.905Z,15.94
2019-03-19T13:37:54.273Z,13.66
2019-03-19T13:40:22.657Z,12.90
2019-03-19T13:42:50.961Z,12.47
2019-03-19T13:45:24.159Z,12.19
2019-03-19T13:47:52.599Z,11.36
2019-03-19T13:50:22.177Z,10.13
2019-03-19T13:52:50.711Z,10.09
2019-03-19T13:55:20.360Z,9.83
2019-03-19T13:57:48.744Z,10.04
2019-03-19T14:00:18.091Z,10.07
2019-03-19T14:02:46.500Z,10.61
2019-03-19T14:05:15.788Z,10.47
2019-03-19T14:07:44.507Z,10.16
2019-03-19T14:10:15.143Z,10.71
2019-03-19T14:12:43.541Z,12.40
2019-03-19T14:15:20.886Z,12.42
2019-03-19T14:17:49.281Z,12.01
2019-03-19T14:20:17.966Z,10.94
2019-03-19T14:22:46.649Z,10.73
2019-03-19T14:25:16.411Z,10.50
2019-03-19T14:27:44.702Z,10.46
2019-03-19T14:30:20.205Z,9.95
2019-03-19T14:32:48.502Z,10.12
2019-03-19T14:35:16.795Z,9.82
2019-03-19T14:37:45.345Z,12.19
2019-03-19T14:40:22.814Z,11.63
2019-03-19T14:42:51.636Z,12.31
2019-03-19T14:45:19.929Z,11.57
2019-03-19T14:47:48.355Z,10.49
2019-03-19T14:50:18.862Z,10.28
2019-03-19T14:52:47.904Z,9.73
2019-03-19T14:55:16.291Z,10.07
2019-03-19T14:57:44.664Z,9.53
2019-03-19T15:00:23.211Z,9.66
2019-03-19T15:02:51.474Z,9.52
2019-03-19T15:05:20.149Z,9.46
2019-03-19T15:07:48.521Z,9.64
2019-03-19T15:10:21.939Z,9.63
2019-03-19T15:12:50.736Z,9.83
2019-03-19T15:15:20.564Z,9.79
2019-03-19T15:17:48.953Z,9.96
2019-03-19T15:20:26.181Z,9.96
2019-03-19T15:22:54.496Z,9.87
2019-03-19T15:25:22.862Z,9.92
2019-03-19T15:27:51.166Z,9.77
2019-03-19T15:30:21.093Z,10.03
2019-03-19T15:32:49.754Z,10.10
2019-03-19T15:35:18.052Z,10.28
2019-03-19T15:37:46.372Z,12.94
2019-03-19T15:40:21.039Z,13.37
2019-03-19T15:42:49.499Z,11.64
2019-03-19T15:45:23.583Z,11.31
2019-03-19T15:47:51.884Z,11.83
2019-03-19T15:50:20.215Z,10.70
2019-03-19T15:52:48.528Z,11.35
2019-03-19T15:55:17.182Z,9.39
2019-03-19T15:57:45.969Z,9.45
2019-03-19T16:00:19.357Z,9.60
2019-03-19T16:02:48.062Z,10.44
2019-03-19T16:05:16.622Z,11.69
2019-03-19T16:07:45.048Z,11.06
2019-03-19T16:10:17.558Z,12.72
2019-03-19T16:12:46.211Z,13.02
2019-03-19T16:15:18.245Z,11.27
2019-03-19T16:17:46.622Z,11.52
2019-03-19T16:20:16.703Z,10.97
2019-03-19T16:22:45.099Z,10.69
2019-03-19T16:25:14.141Z,11.19
2019-03-19T16:27:42.514Z,11.06
2019-03-19T16:30:21.011Z,10.36
2019-03-19T16:32:49.380Z,10.33
2019-03-19T16:35:17.759Z,10.23
2019-03-19T16:37:46.074Z,10.12
2019-03-19T16:40:21.411Z,10.96
2019-03-19T16:42:49.994Z,10.09
2019-03-19T16:45:19.011Z,10.28
2019-03-19T16:47:47.508Z,10.41
2019-03-19T16:50:17.445Z,10.55
2019-03-19T16:52:45.757Z,9.69
2019-03-19T16:55:18.584Z,9.79
2019-03-19T16:57:46.964Z,9.12
2019-03-19T17:00:20.213Z,9.05
2019-03-19T17:02:48.611Z,8.41
2019-03-19T17:05:18.375Z,8.35
2019-03-19T17:07:46.801Z,8.22
2019-03-19T17:10:23.895Z,8.03
2019-03-19T17:12:52.221Z,7.97
2019-03-19T17:15:20.587Z,7.88
2019-03-19T17:17:49.175Z,7.67
2019-03-19T17:20:18.926Z,7.69
2019-03-19T17:22:47.285Z,7.50
2019-03-19T17:25:20.869Z,7.38
2019-03-19T17:27:49.256Z,7.25
2019-03-19T17:30:20.095Z,7.30
2019-03-19T17:32:48.491Z,7.21
2019-03-19T17:35:16.865Z,7.31
2019-03-19T17:37:45.330Z,7.23
2019-03-19T17:40:16.287Z,7.12
2019-03-19T17:42:44.679Z,7.18
2019-03-19T17:45:14.410Z,7.09
2019-03-19T17:47:42.779Z,7.12
2019-03-19T17:50:23.438Z,7.19
2019-03-19T17:52:53.274Z,7.10
2019-03-19T17:55:22.043Z,6.91
2019-03-19T17:57:50.433Z,6.46
2019-03-19T18:00:24.714Z,6.49
2019-03-19T18:02:53.013Z,6.95
2019-03-19T18:05:21.428Z,6.55
2019-03-19T18:07:50.104Z,6.15
2019-03-19T18:10:18.558Z,5.99
2019-03-19T18:12:46.887Z,6.05
2019-03-19T18:15:19.255Z,6.11
2019-03-19T18:17:47.648Z,6.20
2019-03-19T18:20:16.898Z,6.02
2019-03-19T18:22:45.318Z,6.57
2019-03-19T18:25:15.810Z,6.71
2019-03-19T18:27:44.262Z,6.29
2019-03-19T18:30:18.028Z,6.28
2019-03-19T18:32:46.434Z,6.20
2019-03-19T18:35:14.881Z,6.12
2019-03-19T18:37:45.555Z,6.15
2019-03-19T18:40:15.985Z,6.09
2019-03-19T18:42:44.386Z,6.16
2019-03-19T18:45:15.411Z,6.26
2019-03-19T18:47:43.710Z,6.29
2019-03-19T18:50:17.747Z,6.26
2019-03-19T18:52:47.731Z,6.29
2019-03-19T18:55:16.092Z,6.31
2019-03-19T18:57:44.408Z,6.29
2019-03-19T19:00:17.759Z,6.07
2019-03-19T19:02:50.242Z,5.93
2019-03-19T19:05:25.504Z,5.97
2019-03-19T19:07:53.901Z,6.00
2019-03-19T19:10:22.542Z,5.93
2019-03-19T19:12:50.930Z,5.97
2019-03-19T19:15:23.412Z,5.94
2019-03-19T19:17:51.801Z,5.94
2019-03-19T19:20:20.888Z,5.88
2019-03-19T19:22:49.359Z,5.83
2019-03-19T19:25:24.916Z,5.65
2019-03-19T19:27:53.231Z,5.50
2019-03-19T19:30:31.855Z,5.42
2019-03-19T19:33:02.528Z,5.52
2019-03-19T19:35:30.267Z,5.59
2019-03-19T19:37:58.593Z,5.54
2019-03-19T19:40:26.959Z,5.38
2019-03-19T19:42:55.260Z,5.53
2019-03-19T19:45:23.692Z,5.27
2019-03-19T19:47:52.345Z,5.35
2019-03-19T19:50:21.598Z,5.30
2019-03-19T19:52:50.209Z,5.54
2019-03-19T19:55:18.522Z,5.25
2019-03-19T19:57:47.209Z,5.25
2019-03-19T20:00:19.806Z,5.20
2019-03-19T20:02:48.205Z,5.12
2019-03-19T20:05:16.585Z,5.09
2019-03-19T20:07:45.016Z,5.16
2019-03-19T20:10:18.240Z,5.12
2019-03-19T20:12:46.602Z,5.33
2019-03-19T20:15:15.279Z,5.01
2019-03-19T20:17:43.757Z,4.93
2019-03-19T20:20:14.503Z,5.07
2019-03-19T20:22:44.808Z,5.18
2019-03-19T20:25:13.919Z,5.33
2019-03-19T20:27:42.307Z,5.39
2019-03-19T20:30:16.523Z,5.25
2019-03-19T20:32:45.003Z,5.03
2019-03-19T20:35:13.432Z,5.31
2019-03-19T20:37:42.086Z,5.50
2019-03-19T20:40:12.897Z,5.51
2019-03-19T20:42:41.315Z,5.20
2019-03-19T20:45:12.643Z,5.23
2019-03-19T20:47:41.036Z,5.09
2019-03-19T20:50:15.449Z,5.09
2019-03-19T20:52:43.835Z,5.22
2019-03-19T20:55:12.764Z,5.27
2019-03-19T20:57:41.222Z,5.28
2019-03-19T21:00:19.230Z,5.27
2019-03-19T21:02:48.387Z,5.28
2019-03-19T21:05:16.696Z,5.20
2019-03-19T21:07:45.505Z,5.11
2019-03-19T21:10:24.230Z,5.24
2019-03-19T21:12:52.902Z,4.99
2019-03-19T21:15:23.438Z,5.04
2019-03-19T21:17:51.828Z,4.98
2019-03-19T21:20:20.302Z,5.04
2019-03-19T21:22:48.778Z,4.80
2019-03-19T21:25:17.514Z,4.83
2019-03-19T21:27:45.889Z,4.81
2019-03-19T21:30:17.118Z,4.86
2019-03-19T21:32:46.128Z,4.75
2019-03-19T21:35:14.507Z,4.63
2019-03-19T21:37:42.892Z,4.74
2019-03-19T21:40:15.675Z,4.75
2019-03-19T21:42:44.050Z,4.73
2019-03-19T21:45:20.961Z,4.73
2019-03-19T21:47:49.331Z,4.84
2019-03-19T21:50:20.064Z,4.64
2019-03-19T21:52:48.431Z,4.58
2019-03-19T21:55:16.805Z,4.82
2019-03-19T21:57:45.486Z,4.90
2019-03-19T22:00:27.032Z,4.66
2019-03-19T22:02:55.599Z,4.76
2019-03-19T22:05:24.359Z,4.82
2019-03-19T22:07:52.693Z,4.80
2019-03-19T22:10:22.238Z,4.84
2019-03-19T22:12:50.792Z,4.80
2019-03-19T22:15:26.707Z,4.76
2019-03-19T22:17:55.088Z,4.73
2019-03-19T22:20:23.874Z,4.73
2019-03-19T22:22:52.567Z,4.76
2019-03-19T22:25:20.878Z,4.71
2019-03-19T22:27:49.251Z,4.64
2019-03-19T22:30:19.772Z,4.71
2019-03-19T22:32:48.439Z,4.72
2019-03-19T22:35:16.824Z,4.73
2019-03-19T22:37:45.920Z,4.84
2019-03-19T22:40:20.295Z,4.76
2019-03-19T22:42:48.609Z,4.75
2019-03-19T22:45:20.286Z,4.70
2019-03-19T22:47:48.774Z,4.72
2019-03-19T22:50:18.124Z,4.57
2019-03-19T22:52:46.997Z,4.53
2019-03-19T22:55:16.263Z,4.49
2019-03-19T22:57:44.807Z,4.54
2019-03-19T23:00:40.032Z,4.59
2019-03-19T23:03:08.782Z,4.54
2019-03-19T23:05:37.158Z,4.51
2019-03-19T23:08:06.302Z,4.44
2019-03-19T23:10:35.427Z,4.45
2019-03-19T23:13:04.361Z,4.42
2019-03-19T23:15:32.660Z,4.38
2019-03-19T23:18:01.395Z,4.31
2019-03-19T23:20:29.763Z,4.32
2019-03-19T23:22:58.319Z,4.35
2019-03-19T23:25:26.731Z,4.37
2019-03-19T23:27:55.238Z,4.20
2019-03-19T23:30:24.888Z,4.12
2019-03-19T23:32:53.823Z,4.19
2019-03-19T23:35:22.392Z,4.30
2019-03-19T23:37:50.809Z,4.36
2019-03-19T23:40:21.120Z,4.20
2019-03-19T23:42:49.502Z,4.28
2019-03-19T23:45:17.883Z,4.24
2019-03-19T23:47:46.312Z,4.19
2019-03-19T23:50:19.054Z,4.20
2019-03-19T23:52:47.848Z,4.16
2019-03-19T23:55:16.230Z,4.16
2019-03-19T23:57:44.605Z,4.43
